Time;durP1;ratioP1;P1;durP2;ratioP2;P2;SDS_P1;SDS_P2;PMS_P1;PMS_P2;Temp;Humidity;BMP_temperature;BMP_pressure;BME280_temperature;BME280_humidity;BME280_pressure;Samples;Min_cycle;Max_cycle;Signal;HPM_P1;HPM_P2
2024/03/21 00:00:49;;;;;;;56.88;45.65;;;10.10;91.10;;;;;;4992645;28;20044;-72
2024/03/21 00:03:15;;;;;;;56.42;45.28;;;10.00;91.30;;;;;;5010239;28;20025;-72
2024/03/21 00:05:41;;;;;;;63.90;48.58;;;10.00;91.50;;;;;;5014636;28;20373;-72
2024/03/21 00:08:06;;;;;;;58.80;47.75;;;10.00;91.60;;;;;;5018408;28;20052;-72
2024/03/21 00:10:32;;;;;;;61.92;45.67;;;9.90;91.80;;;;;;5015553;28;20045;-74
2024/03/21 00:12:58;;;;;;;57.80;45.70;;;9.90;91.60;;;;;;5014490;28;20025;-73
2024/03/21 00:15:24;;;;;;;55.30;45.10;;;9.90;91.50;;;;;;5012881;28;20372;-72
2024/03/21 00:17:49;;;;;;;62.17;47.10;;;9.90;91.60;;;;;;5013473;28;20571;-74
2024/03/21 00:20:15;;;;;;;63.90;48.65;;;9.90;91.70;;;;;;5012585;28;20029;-72
2024/03/21 00:22:42;;;;;;;56.55;46.75;;;9.90;91.90;;;;;;5013544;28;20052;-72
2024/03/21 00:25:09;;;;;;;63.47;49.17;;;9.90;91.90;;;;;;5014985;28;20466;-72
2024/03/21 00:27:35;;;;;;;60.72;48.35;;;9.80;92.00;;;;;;5010352;28;20041;-72
2024/03/21 00:30:02;;;;;;;64.78;50.95;;;9.80;92.10;;;;;;5016867;28;20018;-73
2024/03/21 00:32:28;;;;;;;61.15;48.28;;;9.80;92.20;;;;;;5007354;28;20049;-72
2024/03/21 00:34:54;;;;;;;66.15;49.88;;;9.80;92.10;;;;;;5008397;28;20041;-71
2024/03/21 00:37:21;;;;;;;59.05;47.50;;;9.80;92.10;;;;;;5013310;28;20040;-73
2024/03/21 00:39:48;;;;;;;61.05;49.33;;;9.80;92.20;;;;;;5012062;28;20234;-71
2024/03/21 00:42:15;;;;;;;61.70;51.42;;;9.80;92.30;;;;;;5015523;28;20038;-72
2024/03/21 00:44:43;;;;;;;60.45;49.33;;;9.70;92.30;;;;;;5014770;28;20500;-73
2024/03/21 00:47:09;;;;;;;55.15;45.65;;;9.70;92.30;;;;;;5014543;28;20110;-72
2024/03/21 00:49:34;;;;;;;58.35;47.78;;;9.60;92.40;;;;;;5011958;28;20036;-72
2024/03/21 00:52:01;;;;;;;58.10;47.90;;;9.60;92.50;;;;;;5014731;28;20371;-72
2024/03/21 00:54:27;;;;;;;56.55;45.95;;;9.60;92.50;;;;;;5018445;28;20070;-71
2024/03/21 00:56:52;;;;;;;55.67;45.58;;;9.60;92.60;;;;;;5012648;28;20405;-72
2024/03/21 00:59:21;;;;;;;61.13;48.80;;;9.50;92.60;;;;;;5017255;28;20026;-72
2024/03/21 01:01:47;;;;;;;62.13;48.15;;;9.50;92.60;;;;;;5017656;28;20050;-72
2024/03/21 01:04:13;;;;;;;60.15;47.80;;;9.50;92.30;;;;;;5022889;28;20030;-72
2024/03/21 01:06:39;;;;;;;59.53;46.75;;;9.50;92.20;;;;;;5020490;28;20047;-71
2024/03/21 01:09:04;;;;;;;63.83;49.33;;;9.40;92.30;;;;;;5016867;28;20394;-71
2024/03/21 01:11:30;;;;;;;58.42;47.35;;;9.40;92.40;;;;;;5013629;28;20378;-73
2024/03/21 01:13:55;;;;;;;58.28;47.92;;;9.30;92.40;;;;;;5016554;28;20466;-73
2024/03/21 01:16:21;;;;;;;61.17;48.28;;;9.30;92.50;;;;;;5008121;28;20038;-73
2024/03/21 01:18:47;;;;;;;63.95;48.85;;;9.20;92.60;;;;;;4994351;28;20034;-72
2024/03/21 01:21:15;;;;;;;57.97;47.72;;;9.20;92.60;;;;;;5000202;28;20454;-73
2024/03/21 01:23:41;;;;;;;57.33;48.00;;;9.20;92.60;;;;;;5013258;28;20100;-71
2024/03/21 01:26:07;;;;;;;55.75;46.90;;;9.20;92.40;;;;;;5015546;28;20106;-72
2024/03/21 01:28:33;;;;;;;59.78;46.95;;;9.20;92.40;;;;;;5014507;28;20037;-71
2024/03/21 01:31:14;;;;;;;55.15;46.50;;;9.10;92.40;;;;;;5005764;28;20403;-72
2024/03/21 01:33:43;;;;;;;58.97;46.63;;;9.10;92.50;;;;;;4996045;28;20028;-69
2024/03/21 01:36:10;;;;;;;60.80;49.15;;;9.10;92.50;;;;;;4999664;28;20486;-72
2024/03/21 01:38:37;;;;;;;56.38;47.03;;;9.10;92.50;;;;;;5020896;28;20221;-72
2024/03/21 01:41:03;;;;;;;59.42;49.53;;;9.10;92.40;;;;;;5013420;28;20041;-73
2024/03/21 01:43:29;;;;;;;56.38;47.20;;;9.00;92.40;;;;;;5016605;28;20610;-71
2024/03/21 01:46:09;;;;;;;55.97;46.22;;;9.10;92.50;;;;;;5013117;28;20030;-72
2024/03/21 01:48:39;;;;;;;58.08;46.50;;;9.00;92.50;;;;;;5016959;28;20535;-71
2024/03/21 01:51:06;;;;;;;60.55;45.83;;;8.90;92.50;;;;;;5013545;28;20034;-72
2024/03/21 01:53:32;;;;;;;58.55;46.60;;;8.90;92.40;;;;;;5019081;28;20679;-74
2024/03/21 01:55:59;;;;;;;55.30;46.45;;;8.90;92.20;;;;;;5012553;28;20229;-72
2024/03/21 01:58:25;;;;;;;59.58;46.50;;;8.80;92.10;;;;;;5016932;28;20048;-73
2024/03/21 02:00:51;;;;;;;57.35;46.05;;;8.80;92.10;;;;;;5010619;28;20048;-73
2024/03/21 02:03:17;;;;;;;55.15;46.88;;;8.80;92.10;;;;;;5016241;28;20037;-73
2024/03/21 02:05:42;;;;;;;60.45;47.10;;;8.80;92.10;;;;;;5011419;28;20037;-74
2024/03/21 02:08:08;;;;;;;57.45;46.33;;;8.70;92.10;;;;;;5015474;28;20033;-73
2024/03/21 02:10:35;;;;;;;60.25;46.80;;;8.70;92.10;;;;;;5016256;28;20375;-73
2024/03/21 02:13:01;;;;;;;60.45;47.40;;;8.70;92.00;;;;;;5016077;28;20021;-73
2024/03/21 02:15:27;;;;;;;60.22;47.10;;;8.60;91.90;;;;;;5013615;28;20040;-72
2024/03/21 02:17:53;;;;;;;59.33;47.67;;;8.60;92.00;;;;;;5016586;28;20057;-73
2024/03/21 02:20:19;;;;;;;60.15;47.00;;;8.60;92.10;;;;;;5013565;28;20056;-74
2024/03/21 02:22:45;;;;;;;58.00;47.22;;;8.60;92.00;;;;;;5011373;28;20410;-74
2024/03/21 02:25:12;;;;;;;57.20;46.65;;;8.50;92.00;;;;;;5020729;28;20028;-73
2024/03/21 02:27:41;;;;;;;62.63;47.80;;;8.50;92.10;;;;;;5014745;28;20167;-74
2024/03/21 02:30:09;;;;;;;60.28;47.53;;;8.40;92.00;;;;;;5016517;28;20026;-73
2024/03/21 02:32:36;;;;;;;58.75;47.28;;;8.40;92.10;;;;;;5017158;28;20129;-72
2024/03/21 02:35:03;;;;;;;63.00;49.50;;;8.50;92.20;;;;;;5012794;28;20438;-73
2024/03/21 02:37:29;;;;;;;67.15;51.38;;;8.50;92.30;;;;;;5008826;28;20121;-72
2024/03/21 02:39:55;;;;;;;67.18;52.28;;;8.50;92.40;;;;;;5007664;28;20030;-71
2024/03/21 02:42:22;;;;;;;67.18;52.30;;;8.50;92.60;;;;;;5013368;28;20038;-71
2024/03/21 02:44:50;;;;;;;68.30;53.10;;;8.50;92.90;;;;;;5017945;28;20022;-72
2024/03/21 02:47:16;;;;;;;63.90;51.03;;;8.50;93.00;;;;;;5010394;28;20116;-72
2024/03/21 02:49:42;;;;;;;62.38;48.63;;;8.60;93.10;;;;;;5007938;28;20041;-73
2024/03/21 02:52:08;;;;;;;60.85;51.45;;;8.50;93.30;;;;;;5015113;28;20033;-71
2024/03/21 02:54:35;;;;;;;63.03;51.63;;;8.50;93.40;;;;;;5013430;28;20068;-72
2024/03/21 02:57:04;;;;;;;64.07;50.28;;;8.50;93.40;;;;;;5006774;28;20033;-72
2024/03/21 02:59:33;;;;;;;64.10;51.15;;;8.50;93.40;;;;;;4993722;28;20486;-71
2024/03/21 03:01:59;;;;;;;61.70;49.40;;;8.50;93.50;;;;;;5005243;28;20634;-71
2024/03/21 03:04:25;;;;;;;63.83;49.97;;;8.50;93.50;;;;;;5018666;28;20555;-71
2024/03/21 03:06:50;;;;;;;62.30;49.42;;;8.50;93.60;;;;;;5006481;28;20512;-71
2024/03/21 03:09:16;;;;;;;66.60;51.30;;;8.40;93.70;;;;;;5010646;28;20026;-72
2024/03/21 03:11:42;;;;;;;64.88;50.30;;;8.40;93.70;;;;;;5004981;28;20865;-70
2024/03/21 03:14:07;;;;;;;62.45;52.03;;;8.40;93.80;;;;;;4993433;28;20454;-71
2024/03/21 03:16:33;;;;;;;66.60;51.03;;;8.40;93.90;;;;;;5002090;28;20166;-72
2024/03/21 03:19:00;;;;;;;64.05;49.42;;;8.30;93.80;;;;;;5018171;28;20092;-72
2024/03/21 03:21:26;;;;;;;65.13;50.45;;;8.30;93.80;;;;;;5016296;28;20056;-72
2024/03/21 03:23:52;;;;;;;62.08;51.85;;;8.30;93.80;;;;;;5019263;28;20041;-73
2024/03/21 03:26:17;;;;;;;64.88;51.88;;;8.30;93.80;;;;;;5011023;28;20041;-72
2024/03/21 03:28:43;;;;;;;62.33;51.85;;;8.30;93.70;;;;;;5014721;28;20034;-73
2024/03/21 03:31:08;;;;;;;67.18;52.58;;;8.30;93.80;;;;;;5016566;28;20049;-72
2024/03/21 03:36:18;;;;;;;69.18;55.00;;;8.20;93.70;;;;;;5006048;28;20110;-72
2024/03/21 03:38:44;;;;;;;64.30;53.03;;;8.20;93.70;;;;;;5010120;28;20042;-71
2024/03/21 03:41:10;;;;;;;65.75;53.42;;;8.20;93.80;;;;;;5014874;28;20500;-72
2024/03/21 03:43:35;;;;;;;70.15;56.28;;;8.20;93.80;;;;;;5019258;28;20029;-71
2024/03/21 03:46:01;;;;;;;65.50;54.78;;;8.20;93.80;;;;;;5013004;28;20041;-73
2024/03/21 03:48:26;;;;;;;65.07;53.83;;;8.10;93.80;;;;;;5012199;28;20052;-72
2024/03/21 03:50:52;;;;;;;74.95;56.05;;;8.10;93.80;;;;;;5016302;28;20342;-72
2024/03/21 03:53:18;;;;;;;66.57;52.95;;;8.10;93.80;;;;;;5012621;28;20494;-72
2024/03/21 03:55:43;;;;;;;67.30;53.08;;;8.10;93.70;;;;;;5011095;28;20252;-72
2024/03/21 03:58:09;;;;;;;71.85;55.13;;;8.10;93.80;;;;;;5015842;28;20041;-73
2024/03/21 04:00:35;;;;;;;73.18;56.42;;;8.10;93.80;;;;;;5011480;28;20048;-72
2024/03/21 04:03:00;;;;;;;71.22;58.80;;;8.10;93.80;;;;;;5019512;28;20474;-72
2024/03/21 04:05:26;;;;;;;73.55;59.10;;;8.10;93.90;;;;;;5008354;28;20045;-73
2024/03/21 04:07:51;;;;;;;71.72;57.88;;;8.10;93.90;;;;;;5012854;28;20532;-72
2024/03/21 04:10:17;;;;;;;78.35;59.65;;;8.10;94.00;;;;;;5007409;28;20461;-71
2024/03/21 04:12:43;;;;;;;72.35;58.05;;;8.10;94.00;;;;;;5014717;28;20418;-73
2024/03/21 04:15:09;;;;;;;70.88;58.35;;;8.20;94.10;;;;;;5014047;28;20426;-73
2024/03/21 04:17:35;;;;;;;77.15;61.58;;;8.20;94.20;;;;;;5014613;28;20136;-72
2024/03/21 04:20:06;;;;;;;81.38;63.28;;;8.30;94.20;;;;;;5015049;28;20153;-73
2024/03/21 04:22:35;;;;;;;78.32;62.75;;;8.30;94.30;;;;;;5019855;28;20033;-73
2024/03/21 04:25:05;;;;;;;82.75;66.30;;;8.40;94.40;;;;;;5021791;28;20065;-72
2024/03/21 04:27:32;;;;;;;93.57;66.85;;;8.60;94.50;;;;;;5015568;28;20044;-74
2024/03/21 04:29:59;;;;;;;74.35;55.90;;;8.60;94.70;;;;;;5018161;28;20025;-72
2024/03/21 04:32:25;;;;;;;67.95;49.83;;;8.70;95.30;;;;;;5009640;28;20045;-73
2024/03/21 04:34:51;;;;;;;74.90;51.90;;;8.90;95.80;;;;;;5016000;28;20029;-72
2024/03/21 04:37:18;;;;;;;74.47;53.33;;;8.90;95.90;;;;;;5012538;28;20037;-72
2024/03/21 04:39:45;;;;;;;67.75;50.13;;;9.00;96.10;;;;;;5014478;28;20034;-73
2024/03/21 04:42:15;;;;;;;74.72;49.38;;;9.00;96.40;;;;;;5011311;28;20045;-72
2024/03/21 04:44:44;;;;;;;70.05;46.80;;;9.10;96.40;;;;;;5019039;28;20013;-72
2024/03/21 04:47:10;;;;;;;63.72;45.47;;;9.10;96.50;;;;;;5019702;28;20100;-73
2024/03/21 04:49:36;;;;;;;62.53;45.33;;;9.10;96.60;;;;;;5018432;28;20091;-74
2024/03/21 04:52:02;;;;;;;62.63;43.53;;;9.20;96.70;;;;;;4998225;28;20637;-74
2024/03/21 04:54:28;;;;;;;56.80;41.40;;;9.20;96.80;;;;;;5001758;28;20034;-71
2024/03/21 04:56:56;;;;;;;55.33;39.38;;;9.30;96.90;;;;;;5009396;28;20127;-72
2024/03/21 04:59:25;;;;;;;45.67;33.38;;;9.40;96.90;;;;;;5018638;28;20030;-72
2024/03/21 05:01:54;;;;;;;47.60;32.40;;;9.40;97.00;;;;;;5011287;28;20093;-72
2024/03/21 05:04:20;;;;;;;43.47;30.88;;;9.40;97.00;;;;;;5013840;28;20073;-72
2024/03/21 05:06:46;;;;;;;43.75;31.85;;;9.50;97.10;;;;;;5014111;28;20719;-72
2024/03/21 05:09:11;;;;;;;42.20;29.83;;;9.50;97.10;;;;;;5011618;28;20110;-72
2024/03/21 05:11:37;;;;;;;37.63;26.35;;;9.60;97.10;;;;;;5012441;28;20033;-72
2024/03/21 05:14:02;;;;;;;30.23;22.40;;;9.60;97.00;;;;;;5012553;28;20042;-73
2024/03/21 05:16:30;;;;;;;29.17;18.98;;;9.60;97.10;;;;;;5013081;28;20428;-73
2024/03/21 05:18:55;;;;;;;25.38;16.55;;;9.50;97.00;;;;;;5015670;28;20056;-71
2024/03/21 05:21:21;;;;;;;22.75;15.63;;;9.50;96.90;;;;;;5013098;28;20490;-72
2024/03/21 05:23:47;;;;;;;22.77;14.88;;;9.40;97.00;;;;;;5018972;28;20029;-72
2024/03/21 05:26:13;;;;;;;28.73;15.90;;;9.40;97.00;;;;;;5009723;28;20113;-72
2024/03/21 05:28:38;;;;;;;24.20;15.82;;;9.30;97.10;;;;;;5000361;28;20056;-72
2024/03/21 05:31:20;;;;;;;22.90;14.73;;;9.30;97.10;;;;;;5002614;28;20421;-72
2024/03/21 05:33:47;;;;;;;23.50;13.77;;;9.40;97.00;;;;;;5025592;28;20031;-74
2024/03/21 05:36:13;;;;;;;21.20;12.45;;;9.30;97.00;;;;;;5011444;28;20038;-72
2024/03/21 05:38:39;;;;;;;23.42;13.40;;;9.20;97.10;;;;;;5004021;28;20112;-72
2024/03/21 05:41:06;;;;;;;27.92;17.58;;;9.20;97.10;;;;;;5004537;28;20021;-72
2024/03/21 05:43:31;;;;;;;29.75;19.77;;;9.10;97.10;;;;;;5022352;28;20180;-71
2024/03/21 05:45:57;;;;;;;31.08;18.67;;;9.10;97.00;;;;;;5021278;28;20129;-73
2024/03/21 05:48:23;;;;;;;25.52;16.50;;;9.10;97.10;;;;;;5029510;28;20523;-71
2024/03/21 05:50:48;;;;;;;23.55;15.27;;;9.00;97.10;;;;;;5025849;28;20038;-73
2024/03/21 05:53:14;;;;;;;21.30;14.20;;;9.00;97.20;;;;;;5021512;28;20026;-74
2024/03/21 05:55:39;;;;;;;20.27;11.45;;;9.00;97.30;;;;;;5017294;28;20159;-74
2024/03/21 05:58:05;;;;;;;19.58;10.55;;;9.00;97.20;;;;;;5003221;28;20109;-72
2024/03/21 06:00:31;;;;;;;20.25;10.70;;;8.90;97.10;;;;;;5007981;28;20029;-73
2024/03/21 06:02:56;;;;;;;19.55;10.68;;;8.80;97.20;;;;;;5021884;28;20038;-72
2024/03/21 06:05:22;;;;;;;20.58;11.13;;;8.80;97.30;;;;;;5020302;28;20125;-74
2024/03/21 06:07:48;;;;;;;19.90;9.98;;;8.80;97.40;;;;;;5020131;28;20056;-73
2024/03/21 06:10:13;;;;;;;19.02;10.55;;;8.80;97.50;;;;;;5020737;28;20030;-72
2024/03/21 06:12:41;;;;;;;18.05;11.05;;;8.80;97.50;;;;;;5023266;28;20037;-73
2024/03/21 06:15:07;;;;;;;19.98;10.35;;;8.80;97.50;;;;;;5018591;28;20151;-73
2024/03/21 06:17:33;;;;;;;18.38;10.40;;;8.80;97.50;;;;;;5040396;28;20261;-74
2024/03/21 06:19:58;;;;;;;19.52;9.82;;;8.90;97.60;;;;;;5060165;28;20025;-73
2024/03/21 06:22:24;;;;;;;22.05;12.00;;;8.90;97.60;;;;;;5050128;28;20033;-73
2024/03/21 06:24:49;;;;;;;20.73;11.10;;;8.90;97.50;;;;;;5051393;28;20094;-72
2024/03/21 06:27:15;;;;;;;21.73;11.98;;;8.80;97.50;;;;;;5057838;28;20039;-73
2024/03/21 06:29:41;;;;;;;20.33;11.45;;;8.90;97.50;;;;;;5060442;28;20499;-72
2024/03/21 06:32:06;;;;;;;21.55;10.00;;;8.90;97.40;;;;;;5059138;28;20198;-72
2024/03/21 06:34:34;;;;;;;21.52;11.00;;;8.90;97.40;;;;;;5060791;28;20028;-74
2024/03/21 06:37:00;;;;;;;18.45;10.93;;;9.00;97.40;;;;;;5037821;28;20379;-74
2024/03/21 06:39:25;;;;;;;17.40;10.05;;;9.00;97.40;;;;;;5042879;28;20033;-74
2024/03/21 06:41:51;;;;;;;20.48;10.95;;;9.00;97.30;;;;;;5053496;28;20103;-73
2024/03/21 06:44:16;;;;;;;17.48;9.95;;;9.00;97.30;;;;;;5059260;28;20028;-73
2024/03/21 06:46:42;;;;;;;20.48;11.68;;;9.00;97.20;;;;;;5060636;28;20028;-74
2024/03/21 06:49:08;;;;;;;20.83;11.10;;;9.00;97.10;;;;;;5054951;28;20029;-73
2024/03/21 06:51:33;;;;;;;17.35;11.20;;;9.00;97.00;;;;;;5052423;28;20029;-75
2024/03/21 06:53:59;;;;;;;20.35;10.95;;;9.00;97.00;;;;;;5029495;28;20371;-74
2024/03/21 06:56:26;;;;;;;20.45;11.85;;;9.00;97.10;;;;;;5042880;28;20102;-74
2024/03/21 06:58:52;;;;;;;21.40;11.73;;;9.10;97.10;;;;;;5056258;28;20705;-74
2024/03/21 07:01:18;;;;;;;17.40;11.68;;;9.10;97.10;;;;;;5053349;28;20411;-73
2024/03/21 07:03:44;;;;;;;19.67;11.90;;;9.10;97.10;;;;;;5051152;28;20086;-75
2024/03/21 07:06:10;;;;;;;21.48;12.20;;;9.10;97.00;;;;;;5050901;28;20049;-74
2024/03/21 07:08:35;;;;;;;19.77;12.05;;;9.10;96.90;;;;;;5032627;28;20020;-75
2024/03/21 07:11:01;;;;;;;18.38;10.75;;;9.10;96.80;;;;;;5050033;28;20567;-74
2024/03/21 07:13:26;;;;;;;18.33;9.90;;;9.10;96.70;;;;;;5052284;28;20023;-75
2024/03/21 07:15:52;;;;;;;15.85;9.60;;;9.00;96.70;;;;;;5047259;28;20133;-75
2024/03/21 07:18:18;;;;;;;14.65;8.77;;;9.00;96.60;;;;;;5051564;28;20431;-77
2024/03/21 07:20:43;;;;;;;16.90;10.70;;;9.00;96.60;;;;;;5053337;28;20370;-76
2024/03/21 07:23:09;;;;;;;17.98;10.15;;;9.10;96.50;;;;;;5052296;28;20488;-77
2024/03/21 07:25:38;;;;;;;17.17;10.73;;;9.10;96.50;;;;;;5050366;28;20082;-77
2024/03/21 07:28:04;;;;;;;19.33;10.40;;;9.10;96.40;;;;;;5052794;28;20064;-78
2024/03/21 07:30:29;;;;;;;19.30;11.25;;;9.10;96.50;;;;;;5047999;28;20463;-76
2024/03/21 07:32:55;;;;;;;19.98;11.02;;;9.10;96.40;;;;;;5050774;28;20048;-78
2024/03/21 07:35:21;;;;;;;16.02;10.00;;;9.10;96.30;;;;;;5053006;28;20142;-79
2024/03/21 07:37:46;;;;;;;15.85;9.85;;;9.10;96.30;;;;;;5031920;28;20107;-78
2024/03/21 07:40:13;;;;;;;17.05;9.43;;;9.20;96.30;;;;;;5051898;28;20033;-75
2024/03/21 07:42:38;;;;;;;16.35;9.88;;;9.10;95.90;;;;;;5052481;28;20032;-75
2024/03/21 07:45:08;;;;;;;16.55;11.15;;;9.10;95.90;;;;;;5036080;28;20362;-77
2024/03/21 07:47:34;;;;;;;17.15;10.43;;;9.10;95.80;;;;;;5032717;28;20416;-77
2024/03/21 07:49:59;;;;;;;16.92;10.30;;;9.10;95.80;;;;;;5032048;28;20111;-80
2024/03/21 07:52:25;;;;;;;17.52;10.18;;;9.10;95.80;;;;;;5059562;28;20029;-80
2024/03/21 07:54:51;;;;;;;15.80;9.73;;;9.10;95.70;;;;;;5054773;28;20138;-79
2024/03/21 07:57:18;;;;;;;14.23;8.82;;;9.10;95.70;;;;;;5059646;28;20392;-76
2024/03/21 07:59:44;;;;;;;16.70;9.93;;;9.10;95.90;;;;;;5059235;28;20025;-78
2024/03/21 08:02:09;;;;;;;17.63;10.00;;;9.20;95.80;;;;;;5061835;28;20964;-76
2024/03/21 08:04:35;;;;;;;16.05;9.80;;;9.30;95.70;;;;;;5057839;28;20081;-78
2024/03/21 08:07:01;;;;;;;13.85;10.00;;;9.40;95.70;;;;;;5055999;28;20036;-78
2024/03/21 08:09:27;;;;;;;13.93;10.23;;;9.40;95.40;;;;;;5045626;28;20039;-77
2024/03/21 08:11:53;;;;;;;12.32;9.18;;;9.20;95.10;;;;;;5055713;28;20036;-77
2024/03/21 08:14:19;;;;;;;13.70;9.52;;;9.20;95.00;;;;;;5071334;28;20033;-75
2024/03/21 08:16:44;;;;;;;12.75;8.77;;;9.30;95.00;;;;;;5052276;28;20064;-75
2024/03/21 08:19:10;;;;;;;13.00;8.63;;;9.40;94.90;;;;;;5055905;28;20524;-78
2024/03/21 08:21:36;;;;;;;15.52;8.80;;;9.50;94.80;;;;;;5042788;28;20174;-78
2024/03/21 08:24:01;;;;;;;14.95;9.63;;;9.50;94.60;;;;;;5059195;28;20484;-80
2024/03/21 08:26:27;;;;;;;14.02;9.40;;;9.50;94.40;;;;;;5058820;28;20048;-81
2024/03/21 08:28:52;;;;;;;13.35;8.82;;;9.60;94.40;;;;;;5055097;28;20348;-76
2024/03/21 08:31:18;;;;;;;12.20;8.40;;;9.60;94.20;;;;;;5057608;28;20562;-76
2024/03/21 08:33:44;;;;;;;14.68;8.27;;;9.70;94.10;;;;;;5062385;28;20075;-80
2024/03/21 08:36:09;;;;;;;14.93;9.68;;;9.80;93.70;;;;;;5044251;28;20060;-81
2024/03/21 08:38:35;;;;;;;11.40;8.68;;;9.70;93.20;;;;;;5058157;28;20115;-78
2024/03/21 08:41:02;;;;;;;11.07;8.52;;;9.90;93.20;;;;;;5057790;28;20111;-77
2024/03/21 08:43:28;;;;;;;14.43;7.53;;;9.90;92.70;;;;;;5058315;28;20041;-80
2024/03/21 08:45:54;;;;;;;16.15;7.57;;;10.00;92.40;;;;;;5042888;28;20051;-79
2024/03/21 08:48:20;;;;;;;10.88;7.45;;;10.10;92.50;;;;;;5062254;28;20437;-80
2024/03/21 08:50:47;;;;;;;11.88;7.45;;;10.10;92.30;;;;;;5061189;28;25412;-81
2024/03/21 08:53:15;;;;;;;13.10;7.78;;;10.10;92.00;;;;;;5060301;28;20029;-80
2024/03/21 08:55:40;;;;;;;10.18;7.22;;;10.20;91.70;;;;;;5058628;28;20044;-79
2024/03/21 08:58:06;;;;;;;10.80;7.47;;;10.30;91.80;;;;;;5064862;28;20056;-79
2024/03/21 09:00:33;;;;;;;12.63;6.80;;;10.30;91.40;;;;;;5055698;28;20040;-81
2024/03/21 09:02:59;;;;;;;11.48;7.35;;;10.40;91.30;;;;;;5043752;28;20116;-78
2024/03/21 09:05:25;;;;;;;10.32;6.45;;;10.50;91.20;;;;;;5061738;28;20029;-84
2024/03/21 09:07:51;;;;;;;12.13;7.15;;;10.60;90.80;;;;;;5054563;28;20493;-83
2024/03/21 09:10:17;;;;;;;12.70;6.75;;;10.60;90.30;;;;;;5059398;28;20031;-82
2024/03/21 09:12:42;;;;;;;11.45;6.70;;;10.70;90.20;;;;;;5057800;28;20115;-79
2024/03/21 09:15:13;;;;;;;10.07;6.25;;;10.90;90.10;;;;;;5056905;28;20032;-78
2024/03/21 09:17:39;;;;;;;11.32;6.93;;;11.10;89.80;;;;;;5057914;28;20139;-82
2024/03/21 09:20:07;;;;;;;11.00;6.18;;;11.10;89.20;;;;;;5062346;28;20080;-84
2024/03/21 09:22:34;;;;;;;10.93;6.75;;;11.10;89.20;;;;;;5043561;28;20039;-83
2024/03/21 09:25:00;;;;;;;11.88;6.72;;;11.20;88.80;;;;;;5044300;28;20448;-82
2024/03/21 09:27:26;;;;;;;11.45;6.45;;;11.20;88.50;;;;;;5062029;28;20050;-81
2024/03/21 09:29:52;;;;;;;11.07;6.50;;;11.20;87.90;;;;;;5064313;28;20021;-82
2024/03/21 09:32:18;;;;;;;11.48;6.40;;;11.20;87.70;;;;;;5044087;28;20047;-81
2024/03/21 09:34:47;;;;;;;9.88;6.45;;;11.20;87.80;;;;;;5065758;28;20025;-81
2024/03/21 09:37:14;;;;;;;11.68;6.20;;;11.10;87.20;;;;;;5062147;28;20519;-80
2024/03/21 09:39:39;;;;;;;10.18;6.55;;;11.20;88.00;;;;;;5049599;28;20033;-80
2024/03/21 09:42:09;;;;;;;10.93;6.10;;;11.40;87.80;;;;;;5061810;28;20043;-85
2024/03/21 09:44:35;;;;;;;11.25;6.13;;;11.50;87.80;;;;;;5061876;28;20123;-79
2024/03/21 09:47:05;;;;;;;10.20;5.40;;;11.80;87.30;;;;;;5062199;28;20040;-82
2024/03/21 09:49:31;;;;;;;10.13;5.70;;;12.00;86.70;;;;;;5063502;28;20033;-81
2024/03/21 09:51:57;;;;;;;9.77;5.53;;;12.10;86.70;;;;;;5062101;28;20392;-78
2024/03/21 09:54:23;;;;;;;10.70;5.65;;;12.10;85.20;;;;;;5045843;28;20514;-82
2024/03/21 09:56:53;;;;;;;12.10;6.00;;;12.30;85.70;;;;;;5059876;28;20390;-79
2024/03/21 09:59:19;;;;;;;12.70;6.53;;;12.60;85.30;;;;;;5062879;28;20039;-82
2024/03/21 10:01:46;;;;;;;12.27;5.32;;;12.70;83.90;;;;;;5043383;28;20063;-83
2024/03/21 10:04:11;;;;;;;10.00;5.40;;;13.00;83.90;;;;;;5036426;28;20368;-82
2024/03/21 10:06:47;;;;;;;10.13;5.60;;;12.90;83.20;;;;;;5059360;28;20043;-81
2024/03/21 10:09:14;;;;;;;13.40;5.95;;;13.00;82.30;;;;;;5054644;28;20082;-81
2024/03/21 10:11:43;;;;;;;8.15;5.05;;;12.90;82.00;;;;;;5061898;28;20377;-84
2024/03/21 10:14:12;;;;;;;8.02;4.93;;;13.20;82.10;;;;;;5045599;28;20039;-81
2024/03/21 10:16:40;;;;;;;9.23;4.68;;;13.40;81.20;;;;;;5059481;28;20044;-83
2024/03/21 10:19:08;;;;;;;9.60;4.60;;;13.60;80.30;;;;;;5068301;28;20040;-82
2024/03/21 10:21:34;;;;;;;8.35;4.38;;;13.40;79.20;;;;;;5062168;28;20127;-80
2024/03/21 10:24:04;;;;;;;7.05;4.70;;;13.60;80.10;;;;;;5063925;28;20492;-84
2024/03/21 10:26:30;;;;;;;10.30;5.28;;;13.70;80.30;;;;;;5061991;28;20044;-81
2024/03/21 10:28:56;;;;;;;8.75;5.50;;;13.50;79.60;;;;;;5064030;28;20028;-81
2024/03/21 10:31:23;;;;;;;10.88;5.50;;;13.40;80.50;;;;;;5058961;28;20052;-81
2024/03/21 10:33:52;;;;;;;12.73;6.03;;;13.50;80.50;;;;;;5062597;28;20472;-83
2024/03/21 10:36:18;;;;;;;10.20;5.28;;;13.30;79.70;;;;;;5061240;28;20047;-84
2024/03/21 10:38:48;;;;;;;11.30;6.65;;;13.10;80.50;;;;;;5060529;28;20032;-83
2024/03/21 10:41:26;;;;;;;9.23;6.28;;;13.20;81.00;;;;;;5063515;28;20726;-83
2024/03/21 10:44:00;;;;;;;9.95;6.63;;;13.20;80.40;;;;;;5059666;28;20020;-78
2024/03/21 10:46:29;;;;;;;10.73;7.00;;;13.00;81.10;;;;;;5049468;28;20075;-78
2024/03/21 10:48:58;;;;;;;14.00;10.60;;;13.00;81.40;;;;;;5057977;28;20244;-80
2024/03/21 10:51:23;;;;;;;13.57;9.77;;;13.00;81.70;;;;;;5057991;28;20047;-77
2024/03/21 10:53:59;;;;;;;13.70;9.73;;;13.10;81.40;;;;;;5057373;28;20029;-76
2024/03/21 10:56:36;;;;;;;13.73;10.00;;;13.10;81.60;;;;;;5058772;28;20044;-76
2024/03/21 10:59:03;;;;;;;15.65;10.55;;;13.20;82.00;;;;;;5064044;28;20024;-75
2024/03/21 11:01:39;;;;;;;17.88;10.75;;;13.30;81.10;;;;;;5059833;28;20370;-79
2024/03/21 11:04:09;;;;;;;12.55;10.90;;;13.30;81.40;;;;;;5060623;28;20460;-75
2024/03/21 11:06:35;;;;;;;13.35;10.40;;;13.30;81.50;;;;;;5056941;28;20032;-82
2024/03/21 11:09:03;;;;;;;14.68;11.25;;;13.50;81.30;;;;;;5059630;28;20093;-76
2024/03/21 11:11:29;;;;;;;18.23;14.05;;;13.60;81.30;;;;;;5060744;28;20664;-75
2024/03/21 11:14:00;;;;;;;16.77;13.02;;;13.70;81.30;;;;;;5065767;28;20499;-80
2024/03/21 11:16:27;;;;;;;17.08;12.82;;;14.00;80.60;;;;;;5063221;28;20040;-83
2024/03/21 11:18:52;;;;;;;13.43;12.02;;;14.10;79.80;;;;;;5066007;28;20032;-75
2024/03/21 11:21:18;;;;;;;14.23;10.63;;;14.20;78.70;;;;;;5062876;28;20318;-79
2024/03/21 11:23:44;;;;;;;14.00;11.43;;;14.10;79.50;;;;;;5067039;28;20493;-74
2024/03/21 11:26:18;;;;;;;13.95;11.55;;;14.30;79.30;;;;;;5053599;28;20036;-81
2024/03/21 11:28:46;;;;;;;14.50;11.93;;;14.30;78.60;;;;;;5034467;28;20093;-75
2024/03/21 11:31:27;;;;;;;15.43;13.05;;;14.30;78.20;;;;;;5052033;28;20119;-78
2024/03/21 11:33:53;;;;;;;16.08;11.38;;;14.10;78.50;;;;;;5055413;28;20104;-82
2024/03/21 11:36:20;;;;;;;17.13;13.18;;;14.00;79.20;;;;;;5052149;28;20621;-79
2024/03/21 11:38:47;;;;;;;16.00;14.10;;;13.80;79.40;;;;;;5052437;28;20600;-77
2024/03/21 11:41:24;;;;;;;16.58;14.65;;;13.70;80.40;;;;;;5050331;28;20043;-83
2024/03/21 11:43:51;;;;;;;16.88;13.82;;;13.90;79.80;;;;;;5053725;28;20108;-83
2024/03/21 11:46:20;;;;;;;19.75;14.50;;;14.10;79.40;;;;;;5051983;28;20120;-82
2024/03/21 11:49:07;;;;;;;16.27;13.70;;;14.50;79.00;;;;;;5031059;28;20395;-75
2024/03/21 11:51:34;;;;;;;17.88;14.93;;;14.90;78.40;;;;;;5048859;28;20123;-79
2024/03/21 11:54:03;;;;;;;17.90;15.02;;;15.10;77.20;;;;;;5048684;28;20039;-81
2024/03/21 11:56:29;;;;;;;17.52;14.93;;;15.10;76.30;;;;;;5043992;28;20053;-80
2024/03/21 11:58:55;;;;;;;19.45;15.13;;;15.10;75.50;;;;;;5053088;28;20036;-76
2024/03/21 12:01:21;;;;;;;19.65;15.82;;;15.00;75.90;;;;;;5050121;28;20045;-77
2024/03/21 12:03:46;;;;;;;15.73;14.13;;;15.10;76.00;;;;;;5040782;28;20441;-74
2024/03/21 12:06:12;;;;;;;19.67;15.55;;;15.10;77.10;;;;;;5047441;28;20047;-81
2024/03/21 12:08:38;;;;;;;20.58;18.17;;;15.30;76.30;;;;;;5053877;28;20066;-77
2024/03/21 12:11:12;;;;;;;25.05;19.92;;;15.40;75.50;;;;;;5060135;28;20115;-77
2024/03/21 12:13:38;;;;;;;29.85;23.83;;;15.50;74.20;;;;;;5041936;28;20396;-76
2024/03/21 12:16:05;;;;;;;34.20;25.65;;;15.30;75.10;;;;;;5061764;28;20157;-79
2024/03/21 12:18:31;;;;;;;36.20;30.27;;;15.40;75.50;;;;;;5063918;28;20467;-82
2024/03/21 12:20:57;;;;;;;37.83;33.42;;;15.30;75.70;;;;;;5041806;28;20086;-81
2024/03/21 12:23:23;;;;;;;45.55;37.05;;;15.30;75.20;;;;;;5060203;28;20334;-76
2024/03/21 12:25:49;;;;;;;44.60;36.67;;;15.30;75.90;;;;;;5061145;28;20075;-76
2024/03/21 12:28:14;;;;;;;42.08;36.38;;;15.30;75.90;;;;;;5062999;28;20036;-78
2024/03/21 12:30:40;;;;;;;40.67;33.80;;;15.30;74.50;;;;;;5063265;28;20033;-85
2024/03/21 12:33:08;;;;;;;41.58;33.67;;;15.50;75.50;;;;;;5065409;28;20366;-77
2024/03/21 12:35:34;;;;;;;39.90;33.25;;;15.40;75.90;;;;;;5063460;28;20039;-75